sensor_id;sensor_type;location;lat;lon;timestamp;P1;durP1;ratioP1;P2;durP2;ratioP2
73120;SDS011;61307;49.628;-1.624;2023-05-29T00:00:59;10.95;;;4.30;;
73120;SDS011;61307;49.628;-1.624;2023-05-29T00:03:26;9.40;;;5.13;;
73120;SDS011;61307;49.628;-1.624;2023-05-29T00:05:53;8.13;;;4.30;;
73120;SDS011;61307;49.628;-1.624;2023-05-29T00:08:21;12.35;;;4.95;;
73120;SDS011;61307;49.628;-1.624;2023-05-29T00:10:48;10.77;;;4.30;;
73120;SDS011;61307;49.628;-1.624;2023-05-29T00:13:15;9.07;;;4.05;;
73120;SDS011;61307;49.628;-1.624;2023-05-29T00:15:42;9.55;;;4.53;;
73120;SDS011;61307;49.628;-1.624;2023-05-29T00:18:09;9.63;;;3.72;;
73120;SDS011;61307;49.628;-1.624;2023-05-29T00:20:36;11.15;;;4.38;;
73120;SDS011;61307;49.628;-1.624;2023-05-29T00:23:03;12.32;;;4.40;;
73120;SDS011;61307;49.628;-1.624;2023-05-29T00:25:32;14.90;;;5.05;;
73120;SDS011;61307;49.628;-1.624;2023-05-29T00:27:59;10.10;;;4.55;;
73120;SDS011;61307;49.628;-1.624;2023-05-29T00:30:26;9.63;;;4.32;;
73120;SDS011;61307;49.628;-1.624;2023-05-29T00:32:53;12.88;;;4.13;;
73120;SDS011;61307;49.628;-1.624;2023-05-29T00:35:20;7.65;;;4.70;;
73120;SDS011;61307;49.628;-1.624;2023-05-29T00:37:47;12.52;;;4.47;;
73120;SDS011;61307;49.628;-1.624;2023-05-29T00:40:14;11.35;;;3.95;;
73120;SDS011;61307;49.628;-1.624;2023-05-29T00:42:42;10.68;;;4.53;;
73120;SDS011;61307;49.628;-1.624;2023-05-29T00:45:10;10.43;;;4.30;;
73120;SDS011;61307;49.628;-1.624;2023-05-29T00:47:38;11.43;;;4.28;;
73120;SDS011;61307;49.628;-1.624;2023-05-29T00:50:06;9.70;;;4.45;;
73120;SDS011;61307;49.628;-1.624;2023-05-29T00:52:38;12.77;;;4.20;;
73120;SDS011;61307;49.628;-1.624;2023-05-29T00:55:07;10.05;;;4.15;;
73120;SDS011;61307;49.628;-1.624;2023-05-29T00:57:34;12.82;;;4.68;;
73120;SDS011;61307;49.628;-1.624;2023-05-29T01:00:05;8.45;;;4.13;;
73120;SDS011;61307;49.628;-1.624;2023-05-29T01:02:35;9.70;;;4.40;;
73120;SDS011;61307;49.628;-1.624;2023-05-29T01:05:02;13.23;;;4.15;;
73120;SDS011;61307;49.628;-1.624;2023-05-29T01:07:30;11.30;;;4.63;;
73120;SDS011;61307;49.628;-1.624;2023-05-29T01:09:58;9.60;;;4.50;;
73120;SDS011;61307;49.628;-1.624;2023-05-29T01:12:28;13.25;;;4.32;;
73120;SDS011;61307;49.628;-1.624;2023-05-29T01:15:04;13.68;;;4.75;;
73120;SDS011;61307;49.628;-1.624;2023-05-29T01:17:45;9.77;;;4.20;;
73120;SDS011;61307;49.628;-1.624;2023-05-29T01:20:23;7.75;;;3.92;;
73120;SDS011;61307;49.628;-1.624;2023-05-29T01:23:06;11.07;;;4.10;;
73120;SDS011;61307;49.628;-1.624;2023-05-29T01:25:58;9.00;;;4.25;;
73120;SDS011;61307;49.628;-1.624;2023-05-29T01:28:37;11.70;;;4.65;;
73120;SDS011;61307;49.628;-1.624;2023-05-29T01:31:07;10.70;;;4.28;;
73120;SDS011;61307;49.628;-1.624;2023-05-29T01:33:38;11.32;;;4.65;;
73120;SDS011;61307;49.628;-1.624;2023-05-29T01:36:05;11.63;;;4.63;;
73120;SDS011;61307;49.628;-1.624;2023-05-29T01:38:33;9.80;;;4.20;;
73120;SDS011;61307;49.628;-1.624;2023-05-29T01:41:00;10.63;;;4.00;;
73120;SDS011;61307;49.628;-1.624;2023-05-29T01:43:27;10.98;;;4.05;;
73120;SDS011;61307;49.628;-1.624;2023-05-29T01:45:57;11.95;;;4.30;;
73120;SDS011;61307;49.628;-1.624;2023-05-29T01:48:24;13.43;;;4.13;;
73120;SDS011;61307;49.628;-1.624;2023-05-29T01:50:54;14.88;;;4.18;;
73120;SDS011;61307;49.628;-1.624;2023-05-29T01:53:21;10.40;;;3.90;;
73120;SDS011;61307;49.628;-1.624;2023-05-29T01:55:49;7.35;;;3.70;;
73120;SDS011;61307;49.628;-1.624;2023-05-29T01:58:16;13.07;;;4.20;;
73120;SDS011;61307;49.628;-1.624;2023-05-29T02:00:46;14.38;;;4.10;;
73120;SDS011;61307;49.628;-1.624;2023-05-29T02:03:14;9.70;;;4.13;;
73120;SDS011;61307;49.628;-1.624;2023-05-29T02:05:41;14.68;;;4.30;;
73120;SDS011;61307;49.628;-1.624;2023-05-29T02:08:08;13.15;;;4.32;;
73120;SDS011;61307;49.628;-1.624;2023-05-29T02:10:35;10.18;;;4.28;;
73120;SDS011;61307;49.628;-1.624;2023-05-29T02:13:02;14.70;;;3.83;;
73120;SDS011;61307;49.628;-1.624;2023-05-29T02:15:29;12.70;;;4.20;;
73120;SDS011;61307;49.628;-1.624;2023-05-29T02:17:55;13.82;;;4.10;;
73120;SDS011;61307;49.628;-1.624;2023-05-29T02:20:24;13.32;;;3.97;;
73120;SDS011;61307;49.628;-1.624;2023-05-29T02:22:52;14.48;;;4.00;;
73120;SDS011;61307;49.628;-1.624;2023-05-29T02:25:19;10.85;;;3.80;;
73120;SDS011;61307;49.628;-1.624;2023-05-29T02:27:46;12.82;;;4.00;;
73120;SDS011;61307;49.628;-1.624;2023-05-29T02:30:12;9.68;;;3.72;;
73120;SDS011;61307;49.628;-1.624;2023-05-29T02:32:40;16.38;;;5.18;;
73120;SDS011;61307;49.628;-1.624;2023-05-29T02:35:07;10.25;;;3.97;;
73120;SDS011;61307;49.628;-1.624;2023-05-29T02:37:36;9.48;;;3.85;;
73120;SDS011;61307;49.628;-1.624;2023-05-29T02:40:03;8.95;;;3.65;;
73120;SDS011;61307;49.628;-1.624;2023-05-29T02:42:31;15.02;;;3.53;;
73120;SDS011;61307;49.628;-1.624;2023-05-29T02:44:58;12.10;;;3.45;;
73120;SDS011;61307;49.628;-1.624;2023-05-29T02:47:25;12.35;;;4.03;;
73120;SDS011;61307;49.628;-1.624;2023-05-29T02:49:52;10.15;;;4.38;;
73120;SDS011;61307;49.628;-1.624;2023-05-29T02:52:19;17.02;;;4.00;;
73120;SDS011;61307;49.628;-1.624;2023-05-29T02:54:49;13.57;;;3.78;;
73120;SDS011;61307;49.628;-1.624;2023-05-29T02:57:16;13.05;;;3.85;;
73120;SDS011;61307;49.628;-1.624;2023-05-29T02:59:43;10.27;;;3.67;;
73120;SDS011;61307;49.628;-1.624;2023-05-29T03:02:10;10.93;;;3.80;;
73120;SDS011;61307;49.628;-1.624;2023-05-29T03:04:37;14.20;;;3.88;;
73120;SDS011;61307;49.628;-1.624;2023-05-29T03:07:05;8.50;;;3.42;;
73120;SDS011;61307;49.628;-1.624;2023-05-29T03:09:34;14.82;;;4.38;;
73120;SDS011;61307;49.628;-1.624;2023-05-29T03:12:03;11.07;;;3.45;;
73120;SDS011;61307;49.628;-1.624;2023-05-29T03:14:30;14.75;;;4.00;;
73120;SDS011;61307;49.628;-1.624;2023-05-29T03:17:01;11.05;;;3.53;;
73120;SDS011;61307;49.628;-1.624;2023-05-29T03:19:28;16.35;;;3.65;;
73120;SDS011;61307;49.628;-1.624;2023-05-29T03:21:55;12.25;;;3.92;;
73120;SDS011;61307;49.628;-1.624;2023-05-29T03:24:21;10.25;;;3.63;;
73120;SDS011;61307;49.628;-1.624;2023-05-29T03:26:49;10.07;;;3.67;;
73120;SDS011;61307;49.628;-1.624;2023-05-29T03:29:17;8.90;;;3.30;;
73120;SDS011;61307;49.628;-1.624;2023-05-29T03:31:45;8.80;;;3.40;;
73120;SDS011;61307;49.628;-1.624;2023-05-29T03:34:11;8.35;;;3.47;;
73120;SDS011;61307;49.628;-1.624;2023-05-29T03:36:39;13.35;;;3.60;;
73120;SDS011;61307;49.628;-1.624;2023-05-29T03:39:06;11.00;;;3.80;;
73120;SDS011;61307;49.628;-1.624;2023-05-29T03:41:33;15.27;;;3.33;;
73120;SDS011;61307;49.628;-1.624;2023-05-29T03:44:00;10.32;;;3.50;;
73120;SDS011;61307;49.628;-1.624;2023-05-29T03:46:28;12.73;;;3.78;;
73120;SDS011;61307;49.628;-1.624;2023-05-29T03:48:56;13.57;;;3.60;;
73120;SDS011;61307;49.628;-1.624;2023-05-29T03:51:23;12.77;;;4.05;;
73120;SDS011;61307;49.628;-1.624;2023-05-29T03:53:50;7.43;;;3.08;;
73120;SDS011;61307;49.628;-1.624;2023-05-29T03:56:16;15.25;;;3.80;;
73120;SDS011;61307;49.628;-1.624;2023-05-29T03:58:43;16.67;;;4.15;;
73120;SDS011;61307;49.628;-1.624;2023-05-29T04:01:10;10.27;;;3.70;;
73120;SDS011;61307;49.628;-1.624;2023-05-29T04:03:38;12.55;;;3.65;;
73120;SDS011;61307;49.628;-1.624;2023-05-29T04:06:06;10.38;;;3.63;;
73120;SDS011;61307;49.628;-1.624;2023-05-29T04:08:33;12.23;;;3.63;;
73120;SDS011;61307;49.628;-1.624;2023-05-29T04:11:00;9.70;;;3.45;;
73120;SDS011;61307;49.628;-1.624;2023-05-29T04:13:28;13.48;;;3.80;;
73120;SDS011;61307;49.628;-1.624;2023-05-29T04:15:56;14.13;;;3.67;;
73120;SDS011;61307;49.628;-1.624;2023-05-29T04:18:24;15.20;;;4.13;;
73120;SDS011;61307;49.628;-1.624;2023-05-29T04:20:52;10.77;;;3.80;;
73120;SDS011;61307;49.628;-1.624;2023-05-29T04:23:19;12.48;;;3.80;;
73120;SDS011;61307;49.628;-1.624;2023-05-29T04:25:47;11.13;;;3.60;;
73120;SDS011;61307;49.628;-1.624;2023-05-29T04:28:15;12.13;;;3.55;;
73120;SDS011;61307;49.628;-1.624;2023-05-29T04:30:45;12.45;;;4.18;;
73120;SDS011;61307;49.628;-1.624;2023-05-29T04:33:12;14.40;;;3.75;;
73120;SDS011;61307;49.628;-1.624;2023-05-29T04:35:40;12.95;;;3.17;;
73120;SDS011;61307;49.628;-1.624;2023-05-29T04:38:09;11.80;;;3.40;;
73120;SDS011;61307;49.628;-1.624;2023-05-29T04:40:36;13.95;;;3.80;;
73120;SDS011;61307;49.628;-1.624;2023-05-29T04:43:05;12.40;;;3.13;;
73120;SDS011;61307;49.628;-1.624;2023-05-29T04:45:32;15.32;;;3.20;;
73120;SDS011;61307;49.628;-1.624;2023-05-29T04:48:02;9.48;;;3.22;;
73120;SDS011;61307;49.628;-1.624;2023-05-29T04:50:28;10.48;;;3.47;;
73120;SDS011;61307;49.628;-1.624;2023-05-29T04:52:56;11.50;;;3.35;;
73120;SDS011;61307;49.628;-1.624;2023-05-29T04:55:25;13.38;;;3.47;;
73120;SDS011;61307;49.628;-1.624;2023-05-29T04:57:52;11.63;;;3.08;;
73120;SDS011;61307;49.628;-1.624;2023-05-29T05:00:19;12.23;;;4.20;;
73120;SDS011;61307;49.628;-1.624;2023-05-29T05:02:47;15.50;;;3.65;;
73120;SDS011;61307;49.628;-1.624;2023-05-29T05:05:17;12.48;;;3.22;;
73120;SDS011;61307;49.628;-1.624;2023-05-29T05:07:43;13.00;;;3.33;;
73120;SDS011;61307;49.628;-1.624;2023-05-29T05:10:10;13.30;;;3.92;;
73120;SDS011;61307;49.628;-1.624;2023-05-29T05:12:39;14.30;;;3.38;;
73120;SDS011;61307;49.628;-1.624;2023-05-29T05:15:07;11.73;;;3.40;;
73120;SDS011;61307;49.628;-1.624;2023-05-29T05:17:35;11.52;;;3.83;;
73120;SDS011;61307;49.628;-1.624;2023-05-29T05:20:02;11.10;;;3.05;;
73120;SDS011;61307;49.628;-1.624;2023-05-29T05:22:31;9.75;;;3.15;;
73120;SDS011;61307;49.628;-1.624;2023-05-29T05:24:57;11.95;;;3.30;;
73120;SDS011;61307;49.628;-1.624;2023-05-29T05:27:25;11.88;;;3.15;;
73120;SDS011;61307;49.628;-1.624;2023-05-29T05:29:53;9.27;;;3.08;;
73120;SDS011;61307;49.628;-1.624;2023-05-29T05:32:20;15.45;;;3.80;;
73120;SDS011;61307;49.628;-1.624;2023-05-29T05:34:47;11.27;;;3.40;;
73120;SDS011;61307;49.628;-1.624;2023-05-29T05:37:14;11.35;;;3.58;;
73120;SDS011;61307;49.628;-1.624;2023-05-29T05:39:41;12.57;;;3.50;;
73120;SDS011;61307;49.628;-1.624;2023-05-29T05:42:08;13.43;;;3.45;;
73120;SDS011;61307;49.628;-1.624;2023-05-29T05:44:35;14.32;;;3.08;;
73120;SDS011;61307;49.628;-1.624;2023-05-29T05:47:04;11.85;;;3.25;;
73120;SDS011;61307;49.628;-1.624;2023-05-29T05:49:31;12.00;;;3.22;;
73120;SDS011;61307;49.628;-1.624;2023-05-29T05:51:58;15.13;;;3.83;;
73120;SDS011;61307;49.628;-1.624;2023-05-29T05:54:25;13.18;;;4.35;;
73120;SDS011;61307;49.628;-1.624;2023-05-29T05:56:52;13.32;;;3.47;;
73120;SDS011;61307;49.628;-1.624;2023-05-29T05:59:20;10.30;;;3.35;;
73120;SDS011;61307;49.628;-1.624;2023-05-29T06:01:47;14.20;;;3.85;;
73120;SDS011;61307;49.628;-1.624;2023-05-29T06:04:15;9.70;;;3.33;;
73120;SDS011;61307;49.628;-1.624;2023-05-29T06:06:42;10.65;;;3.60;;
73120;SDS011;61307;49.628;-1.624;2023-05-29T06:09:09;10.23;;;3.45;;
73120;SDS011;61307;49.628;-1.624;2023-05-29T06:11:37;10.30;;;3.53;;
73120;SDS011;61307;49.628;-1.624;2023-05-29T06:14:04;10.88;;;3.47;;
73120;SDS011;61307;49.628;-1.624;2023-05-29T06:16:31;8.73;;;3.13;;
73120;SDS011;61307;49.628;-1.624;2023-05-29T06:18:58;10.43;;;2.97;;
73120;SDS011;61307;49.628;-1.624;2023-05-29T06:21:26;11.35;;;3.20;;
73120;SDS011;61307;49.628;-1.624;2023-05-29T06:23:53;9.98;;;3.22;;
73120;SDS011;61307;49.628;-1.624;2023-05-29T06:26:20;13.40;;;3.00;;
73120;SDS011;61307;49.628;-1.624;2023-05-29T06:28:47;10.20;;;2.97;;
73120;SDS011;61307;49.628;-1.624;2023-05-29T06:31:14;11.40;;;3.05;;
73120;SDS011;61307;49.628;-1.624;2023-05-29T06:33:41;9.73;;;3.30;;
73120;SDS011;61307;49.628;-1.624;2023-05-29T06:36:08;12.25;;;3.10;;
73120;SDS011;61307;49.628;-1.624;2023-05-29T06:38:37;11.10;;;3.25;;
73120;SDS011;61307;49.628;-1.624;2023-05-29T06:41:04;9.10;;;2.80;;
73120;SDS011;61307;49.628;-1.624;2023-05-29T06:43:31;10.57;;;2.78;;
73120;SDS011;61307;49.628;-1.624;2023-05-29T06:45:58;10.55;;;3.47;;
73120;SDS011;61307;49.628;-1.624;2023-05-29T06:48:25;11.57;;;3.83;;
73120;SDS011;61307;49.628;-1.624;2023-05-29T06:50:52;12.13;;;3.63;;
73120;SDS011;61307;49.628;-1.624;2023-05-29T06:53:19;9.35;;;2.80;;
73120;SDS011;61307;49.628;-1.624;2023-05-29T06:55:47;10.40;;;2.85;;
73120;SDS011;61307;49.628;-1.624;2023-05-29T06:58:14;12.52;;;3.25;;
73120;SDS011;61307;49.628;-1.624;2023-05-29T07:00:41;9.07;;;3.15;;
73120;SDS011;61307;49.628;-1.624;2023-05-29T07:03:08;12.00;;;3.28;;
73120;SDS011;61307;49.628;-1.624;2023-05-29T07:05:35;8.68;;;3.20;;
73120;SDS011;61307;49.628;-1.624;2023-05-29T07:08:02;11.55;;;3.08;;
73120;SDS011;61307;49.628;-1.624;2023-05-29T07:10:29;8.60;;;2.95;;
73120;SDS011;61307;49.628;-1.624;2023-05-29T07:12:57;11.25;;;3.58;;
73120;SDS011;61307;49.628;-1.624;2023-05-29T07:15:24;9.48;;;3.30;;
73120;SDS011;61307;49.628;-1.624;2023-05-29T07:17:51;7.90;;;3.08;;
73120;SDS011;61307;49.628;-1.624;2023-05-29T07:20:18;10.35;;;3.35;;
73120;SDS011;61307;49.628;-1.624;2023-05-29T07:22:45;10.48;;;3.03;;
73120;SDS011;61307;49.628;-1.624;2023-05-29T07:25:12;12.50;;;2.92;;
73120;SDS011;61307;49.628;-1.624;2023-05-29T07:27:39;14.88;;;3.67;;
73120;SDS011;61307;49.628;-1.624;2023-05-29T07:30:09;9.00;;;3.15;;
73120;SDS011;61307;49.628;-1.624;2023-05-29T07:32:37;16.33;;;3.50;;
73120;SDS011;61307;49.628;-1.624;2023-05-29T07:35:04;12.43;;;3.15;;
73120;SDS011;61307;49.628;-1.624;2023-05-29T07:37:31;13.68;;;3.25;;
73120;SDS011;61307;49.628;-1.624;2023-05-29T07:40:00;10.18;;;2.97;;
73120;SDS011;61307;49.628;-1.624;2023-05-29T07:42:29;13.05;;;3.35;;
73120;SDS011;61307;49.628;-1.624;2023-05-29T07:44:56;10.20;;;3.03;;
73120;SDS011;61307;49.628;-1.624;2023-05-29T07:47:24;9.70;;;3.05;;
73120;SDS011;61307;49.628;-1.624;2023-05-29T07:49:51;11.18;;;3.38;;
73120;SDS011;61307;49.628;-1.624;2023-05-29T07:52:18;11.43;;;2.92;;
73120;SDS011;61307;49.628;-1.624;2023-05-29T07:54:45;12.15;;;3.20;;
73120;SDS011;61307;49.628;-1.624;2023-05-29T07:57:12;10.90;;;3.70;;
73120;SDS011;61307;49.628;-1.624;2023-05-29T07:59:40;11.13;;;3.40;;
73120;SDS011;61307;49.628;-1.624;2023-05-29T08:02:07;13.82;;;3.13;;
73120;SDS011;61307;49.628;-1.624;2023-05-29T08:04:36;9.32;;;3.25;;
73120;SDS011;61307;49.628;-1.624;2023-05-29T08:07:03;8.02;;;2.83;;
73120;SDS011;61307;49.628;-1.624;2023-05-29T08:09:30;9.77;;;3.40;;
73120;SDS011;61307;49.628;-1.624;2023-05-29T08:11:57;12.68;;;3.58;;
73120;SDS011;61307;49.628;-1.624;2023-05-29T08:14:25;10.43;;;2.78;;
73120;SDS011;61307;49.628;-1.624;2023-05-29T08:16:52;12.07;;;2.90;;
73120;SDS011;61307;49.628;-1.624;2023-05-29T08:19:18;11.00;;;3.05;;
73120;SDS011;61307;49.628;-1.624;2023-05-29T08:21:47;12.27;;;3.38;;
73120;SDS011;61307;49.628;-1.624;2023-05-29T08:24:14;9.38;;;3.03;;
73120;SDS011;61307;49.628;-1.624;2023-05-29T08:26:41;9.70;;;3.10;;
73120;SDS011;61307;49.628;-1.624;2023-05-29T08:29:09;12.82;;;3.28;;
73120;SDS011;61307;49.628;-1.624;2023-05-29T08:31:36;12.82;;;3.10;;
73120;SDS011;61307;49.628;-1.624;2023-05-29T08:34:03;12.70;;;3.05;;
73120;SDS011;61307;49.628;-1.624;2023-05-29T08:36:31;12.45;;;2.83;;
73120;SDS011;61307;49.628;-1.624;2023-05-29T08:39:00;14.75;;;3.63;;
73120;SDS011;61307;49.628;-1.624;2023-05-29T08:41:28;12.68;;;3.55;;
73120;SDS011;61307;49.628;-1.624;2023-05-29T08:44:01;8.30;;;3.17;;
73120;SDS011;61307;49.628;-1.624;2023-05-29T08:46:30;11.02;;;3.05;;
73120;SDS011;61307;49.628;-1.624;2023-05-29T08:48:58;12.73;;;3.33;;
73120;SDS011;61307;49.628;-1.624;2023-05-29T08:51:27;13.60;;;3.72;;
73120;SDS011;61307;49.628;-1.624;2023-05-29T08:54:01;11.73;;;3.35;;
73120;SDS011;61307;49.628;-1.624;2023-05-29T08:56:28;11.80;;;3.53;;
73120;SDS011;61307;49.628;-1.624;2023-05-29T08:58:56;11.55;;;3.35;;
73120;SDS011;61307;49.628;-1.624;2023-05-29T09:01:23;14.35;;;3.45;;
73120;SDS011;61307;49.628;-1.624;2023-05-29T09:03:51;12.05;;;3.45;;
73120;SDS011;61307;49.628;-1.624;2023-05-29T09:06:19;13.38;;;3.45;;
73120;SDS011;61307;49.628;-1.624;2023-05-29T09:08:49;14.52;;;3.20;;
73120;SDS011;61307;49.628;-1.624;2023-05-29T09:11:18;13.73;;;3.58;;
73120;SDS011;61307;49.628;-1.624;2023-05-29T09:13:46;11.55;;;3.20;;
73120;SDS011;61307;49.628;-1.624;2023-05-29T09:16:14;10.93;;;3.50;;
73120;SDS011;61307;49.628;-1.624;2023-05-29T09:18:42;10.13;;;3.50;;
73120;SDS011;61307;49.628;-1.624;2023-05-29T09:21:15;11.02;;;3.72;;
73120;SDS011;61307;49.628;-1.624;2023-05-29T09:23:52;13.07;;;3.40;;
73120;SDS011;61307;49.628;-1.624;2023-05-29T09:26:21;13.85;;;3.35;;
73120;SDS011;61307;49.628;-1.624;2023-05-29T09:28:49;10.15;;;3.55;;
73120;SDS011;61307;49.628;-1.624;2023-05-29T09:31:16;14.48;;;3.65;;
73120;SDS011;61307;49.628;-1.624;2023-05-29T09:33:48;15.85;;;3.22;;
73120;SDS011;61307;49.628;-1.624;2023-05-29T09:36:19;11.82;;;3.63;;
73120;SDS011;61307;49.628;-1.624;2023-05-29T09:38:47;8.80;;;3.28;;
73120;SDS011;61307;49.628;-1.624;2023-05-29T09:41:19;14.77;;;3.60;;
73120;SDS011;61307;49.628;-1.624;2023-05-29T09:43:48;13.10;;;3.25;;
73120;SDS011;61307;49.628;-1.624;2023-05-29T09:46:16;10.32;;;3.42;;
73120;SDS011;61307;49.628;-1.624;2023-05-29T09:48:43;12.07;;;3.55;;
73120;SDS011;61307;49.628;-1.624;2023-05-29T09:51:18;10.63;;;3.38;;
73120;SDS011;61307;49.628;-1.624;2023-05-29T09:53:47;9.52;;;3.42;;
73120;SDS011;61307;49.628;-1.624;2023-05-29T09:56:15;11.30;;;3.42;;
73120;SDS011;61307;49.628;-1.624;2023-05-29T09:58:45;8.98;;;3.20;;
73120;SDS011;61307;49.628;-1.624;2023-05-29T10:01:13;11.50;;;3.60;;
73120;SDS011;61307;49.628;-1.624;2023-05-29T10:03:41;13.15;;;3.63;;
73120;SDS011;61307;49.628;-1.624;2023-05-29T10:06:09;17.13;;;3.67;;
73120;SDS011;61307;49.628;-1.624;2023-05-29T10:08:39;11.50;;;3.17;;
73120;SDS011;61307;49.628;-1.624;2023-05-29T10:11:10;12.45;;;3.80;;
73120;SDS011;61307;49.628;-1.624;2023-05-29T10:13:41;11.50;;;2.92;;
73120;SDS011;61307;49.628;-1.624;2023-05-29T10:16:15;12.10;;;3.88;;
73120;SDS011;61307;49.628;-1.624;2023-05-29T10:18:47;9.52;;;3.17;;
73120;SDS011;61307;49.628;-1.624;2023-05-29T10:21:16;10.77;;;3.58;;
73120;SDS011;61307;49.628;-1.624;2023-05-29T10:23:46;10.70;;;3.63;;
73120;SDS011;61307;49.628;-1.624;2023-05-29T10:26:15;12.15;;;3.35;;
73120;SDS011;61307;49.628;-1.624;2023-05-29T10:28:49;13.88;;;3.90;;
73120;SDS011;61307;49.628;-1.624;2023-05-29T10:31:26;13.80;;;3.60;;
73120;SDS011;61307;49.628;-1.624;2023-05-29T10:34:02;12.00;;;3.58;;
73120;SDS011;61307;49.628;-1.624;2023-05-29T10:36:38;10.45;;;3.08;;
73120;SDS011;61307;49.628;-1.624;2023-05-29T10:39:10;15.15;;;3.42;;
73120;SDS011;61307;49.628;-1.624;2023-05-29T10:41:37;11.43;;;3.58;;
73120;SDS011;61307;49.628;-1.624;2023-05-29T10:47:20;11.15;;;2.80;;
73120;SDS011;61307;49.628;-1.624;2023-05-29T10:49:49;11.93;;;3.55;;
73120;SDS011;61307;49.628;-1.624;2023-05-29T10:52:18;12.55;;;3.28;;
73120;SDS011;61307;49.628;-1.624;2023-05-29T10:54:50;11.55;;;3.47;;
73120;SDS011;61307;49.628;-1.624;2023-05-29T10:57:20;9.88;;;3.58;;
73120;SDS011;61307;49.628;-1.624;2023-05-29T10:59:57;11.20;;;2.97;;
73120;SDS011;61307;49.628;-1.624;2023-05-29T11:02:26;11.13;;;3.45;;
73120;SDS011;61307;49.628;-1.624;2023-05-29T11:05:17;12.57;;;3.13;;
73120;SDS011;61307;49.628;-1.624;2023-05-29T11:07:52;11.73;;;3.58;;
73120;SDS011;61307;49.628;-1.624;2023-05-29T11:10:42;10.73;;;3.38;;
73120;SDS011;61307;49.628;-1.624;2023-05-29T11:13:10;9.00;;;3.55;;
73120;SDS011;61307;49.628;-1.624;2023-05-29T11:15:37;15.20;;;3.05;;
73120;SDS011;61307;49.628;-1.624;2023-05-29T11:18:08;11.40;;;3.58;;
73120;SDS011;61307;49.628;-1.624;2023-05-29T11:20:42;13.05;;;3.70;;
73120;SDS011;61307;49.628;-1.624;2023-05-29T11:23:14;10.98;;;3.03;;
73120;SDS011;61307;49.628;-1.624;2023-05-29T11:25:43;13.10;;;3.38;;
73120;SDS011;61307;49.628;-1.624;2023-05-29T11:28:11;12.25;;;2.90;;
73120;SDS011;61307;49.628;-1.624;2023-05-29T11:30:42;11.98;;;3.50;;
73120;SDS011;61307;49.628;-1.624;2023-05-29T11:33:19;12.13;;;3.45;;
73120;SDS011;61307;49.628;-1.624;2023-05-29T11:35:56;9.65;;;2.92;;
73120;SDS011;61307;49.628;-1.624;2023-05-29T11:38:25;10.07;;;3.58;;
73120;SDS011;61307;49.628;-1.624;2023-05-29T11:40:53;13.70;;;3.67;;
73120;SDS011;61307;49.628;-1.624;2023-05-29T11:43:20;9.65;;;2.97;;
73120;SDS011;61307;49.628;-1.624;2023-05-29T11:45:48;8.90;;;2.88;;
73120;SDS011;61307;49.628;-1.624;2023-05-29T11:48:16;10.70;;;3.45;;
73120;SDS011;61307;49.628;-1.624;2023-05-29T11:50:43;11.88;;;3.20;;
73120;SDS011;61307;49.628;-1.624;2023-05-29T11:53:10;12.77;;;3.30;;
73120;SDS011;61307;49.628;-1.624;2023-05-29T11:55:38;10.70;;;3.10;;
73120;SDS011;61307;49.628;-1.624;2023-05-29T11:58:05;10.50;;;3.50;;
73120;SDS011;61307;49.628;-1.624;2023-05-29T12:00:33;11.57;;;3.05;;
73120;SDS011;61307;49.628;-1.624;2023-05-29T12:03:00;10.85;;;3.53;;
73120;SDS011;61307;49.628;-1.624;2023-05-29T12:05:31;9.43;;;3.72;;
73120;SDS011;61307;49.628;-1.624;2023-05-29T12:07:58;10.05;;;2.97;;
73120;SDS011;61307;49.628;-1.624;2023-05-29T12:10:29;12.70;;;3.30;;
73120;SDS011;61307;49.628;-1.624;2023-05-29T12:12:58;13.00;;;3.60;;
73120;SDS011;61307;49.628;-1.624;2023-05-29T12:15:26;12.30;;;3.20;;
73120;SDS011;61307;49.628;-1.624;2023-05-29T12:17:53;12.68;;;3.33;;
73120;SDS011;61307;49.628;-1.624;2023-05-29T12:20:22;10.13;;;3.63;;
73120;SDS011;61307;49.628;-1.624;2023-05-29T12:22:53;10.73;;;3.53;;
73120;SDS011;61307;49.628;-1.624;2023-05-29T12:25:26;11.80;;;3.35;;
73120;SDS011;61307;49.628;-1.624;2023-05-29T12:27:55;12.27;;;3.75;;
73120;SDS011;61307;49.628;-1.624;2023-05-29T12:30:23;13.10;;;3.10;;
73120;SDS011;61307;49.628;-1.624;2023-05-29T12:32:50;12.85;;;3.45;;
73120;SDS011;61307;49.628;-1.624;2023-05-29T12:35:19;11.90;;;3.72;;
73120;SDS011;61307;49.628;-1.624;2023-05-29T12:37:48;11.35;;;2.97;;
73120;SDS011;61307;49.628;-1.624;2023-05-29T12:40:18;8.70;;;3.40;;
73120;SDS011;61307;49.628;-1.624;2023-05-29T12:42:47;10.35;;;3.58;;
73120;SDS011;61307;49.628;-1.624;2023-05-29T12:45:14;10.45;;;3.22;;
73120;SDS011;61307;49.628;-1.624;2023-05-29T12:47:50;8.75;;;2.92;;
73120;SDS011;61307;49.628;-1.624;2023-05-29T12:50:21;11.10;;;3.25;;
73120;SDS011;61307;49.628;-1.624;2023-05-29T12:52:56;10.55;;;2.75;;
73120;SDS011;61307;49.628;-1.624;2023-05-29T12:55:26;12.38;;;3.38;;
73120;SDS011;61307;49.628;-1.624;2023-05-29T12:57:53;9.25;;;3.00;;
73120;SDS011;61307;49.628;-1.624;2023-05-29T13:00:21;10.52;;;3.17;;
73120;SDS011;61307;49.628;-1.624;2023-05-29T13:02:50;11.45;;;3.40;;
73120;SDS011;61307;49.628;-1.624;2023-05-29T13:05:17;8.73;;;2.78;;
73120;SDS011;61307;49.628;-1.624;2023-05-29T13:07:47;11.40;;;3.10;;
73120;SDS011;61307;49.628;-1.624;2023-05-29T13:10:15;10.23;;;2.97;;
73120;SDS011;61307;49.628;-1.624;2023-05-29T13:12:43;8.27;;;2.70;;
73120;SDS011;61307;49.628;-1.624;2023-05-29T13:15:11;9.52;;;3.22;;
73120;SDS011;61307;49.628;-1.624;2023-05-29T13:17:39;13.52;;;3.17;;
73120;SDS011;61307;49.628;-1.624;2023-05-29T13:20:08;10.13;;;3.30;;
73120;SDS011;61307;49.628;-1.624;2023-05-29T13:22:36;10.57;;;3.17;;
73120;SDS011;61307;49.628;-1.624;2023-05-29T13:25:03;7.70;;;2.65;;
73120;SDS011;61307;49.628;-1.624;2023-05-29T13:27:32;9.13;;;3.38;;
73120;SDS011;61307;49.628;-1.624;2023-05-29T13:30:02;9.40;;;3.08;;
73120;SDS011;61307;49.628;-1.624;2023-05-29T13:32:30;11.27;;;3.17;;
73120;SDS011;61307;49.628;-1.624;2023-05-29T13:34:57;9.82;;;2.97;;
73120;SDS011;61307;49.628;-1.624;2023-05-29T13:37:24;13.63;;;2.90;;
73120;SDS011;61307;49.628;-1.624;2023-05-29T13:39:52;13.43;;;3.20;;
73120;SDS011;61307;49.628;-1.624;2023-05-29T13:42:20;11.02;;;3.40;;
73120;SDS011;61307;49.628;-1.624;2023-05-29T13:44:47;9.00;;;2.72;;
73120;SDS011;61307;49.628;-1.624;2023-05-29T13:47:15;11.45;;;3.08;;
73120;SDS011;61307;49.628;-1.624;2023-05-29T13:49:42;9.45;;;2.90;;
73120;SDS011;61307;49.628;-1.624;2023-05-29T13:52:10;11.77;;;2.90;;
73120;SDS011;61307;49.628;-1.624;2023-05-29T13:54:37;9.00;;;2.83;;
73120;SDS011;61307;49.628;-1.624;2023-05-29T13:57:05;7.00;;;2.70;;
73120;SDS011;61307;49.628;-1.624;2023-05-29T13:59:33;8.10;;;2.50;;
73120;SDS011;61307;49.628;-1.624;2023-05-29T14:02:01;10.38;;;2.85;;
73120;SDS011;61307;49.628;-1.624;2023-05-29T14:04:30;12.07;;;3.00;;
73120;SDS011;61307;49.628;-1.624;2023-05-29T14:06:57;7.88;;;2.95;;
73120;SDS011;61307;49.628;-1.624;2023-05-29T14:09:24;16.42;;;3.38;;
73120;SDS011;61307;49.628;-1.624;2023-05-29T14:11:53;7.78;;;2.90;;
73120;SDS011;61307;49.628;-1.624;2023-05-29T14:14:20;11.85;;;2.80;;
73120;SDS011;61307;49.628;-1.624;2023-05-29T14:16:48;9.63;;;2.97;;
73120;SDS011;61307;49.628;-1.624;2023-05-29T14:19:16;14.77;;;3.38;;
73120;SDS011;61307;49.628;-1.624;2023-05-29T14:21:45;10.25;;;3.20;;
73120;SDS011;61307;49.628;-1.624;2023-05-29T14:24:12;8.50;;;2.78;;
73120;SDS011;61307;49.628;-1.624;2023-05-29T14:26:40;11.82;;;2.95;;
73120;SDS011;61307;49.628;-1.624;2023-05-29T14:29:09;12.15;;;3.20;;
73120;SDS011;61307;49.628;-1.624;2023-05-29T14:31:37;11.10;;;2.90;;
73120;SDS011;61307;49.628;-1.624;2023-05-29T14:34:04;7.05;;;2.60;;